Terminal Aerodrome Forecast
Issued by NWS

Home | Current Version | Previous Version | Text Only | Print | Product List | Glossary On
Versions: 1 2 3 4 5 6 7 8 9 10 11 12 13 14 15 16
750
FTUS44 KLIX 280520
TAFMSY
TAF
KMSY 280520Z 2806/2906 10007KT P6SM FEW100 SCT170
     FM281400 06007KT P6SM VCTS SCT050CB BKN200
     FM281800 08008KT P6SM SHRA BKN090=

USA.gov is the U.S. government's official web portal to all federal, state and local government web resources and services.